createdAt,value
2022-12-29T00:02:19.664Z,95348.47
2022-12-29T00:04:47.538Z,95341.44
2022-12-29T00:07:15.348Z,95345.00
2022-12-29T00:09:43.476Z,95345.16
2022-12-29T00:12:12.541Z,95343.06
2022-12-29T00:14:58.070Z,95337.94
2022-12-29T00:17:25.755Z,95336.75
2022-12-29T00:20:11.938Z,95323.75
2022-12-29T00:22:57.331Z,95319.31
2022-12-29T00:25:43.550Z,95319.03
2022-12-29T00:28:30.535Z,95322.56
2022-12-29T00:31:18.779Z,95309.88
2022-12-29T00:34:04.160Z,95313.47
2022-12-29T00:36:35.516Z,95317.72
2022-12-29T00:39:23.528Z,95311.16
2022-12-29T00:42:05.111Z,95320.91
2022-12-29T00:44:34.176Z,95312.47
2022-12-29T00:47:04.110Z,95312.31
2022-12-29T00:49:33.114Z,95314.13
2022-12-29T00:52:04.399Z,95319.69
2022-12-29T00:54:34.736Z,95321.06
2022-12-29T00:57:03.582Z,95330.69
2022-12-29T00:59:34.032Z,95325.47
2022-12-29T01:02:01.851Z,95329.59
2022-12-29T01:04:30.466Z,95327.34
2022-12-29T01:06:58.211Z,95331.22
2022-12-29T01:09:44.358Z,95329.28
2022-12-29T01:12:12.499Z,95327.66
2022-12-29T01:14:42.417Z,95321.59
2022-12-29T01:17:10.124Z,95326.31
2022-12-29T01:19:38.350Z,95327.97
2022-12-29T01:22:06.025Z,95333.25
2022-12-29T01:24:35.416Z,95334.16
2022-12-29T01:27:03.073Z,95337.09
2022-12-29T01:29:31.450Z,95343.13
2022-12-29T01:32:00.530Z,95336.63
2022-12-29T01:34:28.801Z,95338.31
2022-12-29T01:36:56.460Z,95345.69
2022-12-29T01:39:25.779Z,95343.44
2022-12-29T01:41:53.452Z,95344.03
2022-12-29T01:44:53.823Z,95325.81
2022-12-29T01:47:32.361Z,95329.88
2022-12-29T01:50:06.346Z,95328.31
2022-12-29T01:52:37.101Z,95322.47
2022-12-29T01:55:06.951Z,95325.66
2022-12-29T01:57:39.001Z,95333.78
2022-12-29T02:00:10.012Z,95329.22
2022-12-29T02:02:48.683Z,95322.72
2022-12-29T02:05:23.594Z,95323.69
2022-12-29T02:07:54.111Z,95314.59
2022-12-29T02:10:23.827Z,95318.75
2022-12-29T02:12:51.857Z,95305.88
2022-12-29T02:15:21.486Z,95303.41
2022-12-29T02:18:13.283Z,95293.13
2022-12-29T02:21:32.684Z,95293.13
2022-12-29T02:24:39.900Z,95291.78
2022-12-29T02:27:31.080Z,95291.25
2022-12-29T02:30:09.299Z,95287.81
2022-12-29T02:32:51.864Z,95286.47
2022-12-29T02:35:27.890Z,95281.91
2022-12-29T02:38:03.999Z,95276.19
2022-12-29T02:40:40.982Z,95279.28
2022-12-29T02:43:18.302Z,95271.59
2022-12-29T02:45:50.403Z,95276.41
2022-12-29T02:48:26.679Z,95274.75
2022-12-29T02:51:01.541Z,95270.22
2022-12-29T02:53:50.057Z,95272.03
2022-12-29T02:56:19.963Z,95262.69
2022-12-29T02:58:48.121Z,95268.25
2022-12-29T03:01:25.544Z,95268.25
2022-12-29T03:04:13.385Z,95267.75
2022-12-29T03:06:54.161Z,95261.72
2022-12-29T03:09:35.705Z,95261.59
2022-12-29T03:12:12.578Z,95263.22
2022-12-29T03:15:15.590Z,95267.47
2022-12-29T03:17:53.696Z,95259.50
2022-12-29T03:20:27.752Z,95251.94
2022-12-29T03:23:01.678Z,95256.72
2022-12-29T03:25:34.374Z,95255.41
2022-12-29T03:28:09.210Z,95255.22
2022-12-29T03:30:44.526Z,95254.25
2022-12-29T03:33:16.741Z,95247.38
2022-12-29T03:35:51.747Z,95245.09
2022-12-29T03:38:25.300Z,95237.56
2022-12-29T03:40:58.056Z,95246.69
2022-12-29T03:43:29.245Z,95243.78
2022-12-29T03:45:58.249Z,95240.97
2022-12-29T03:48:26.068Z,95245.41
2022-12-29T03:50:57.631Z,95239.84
2022-12-29T03:53:25.406Z,95238.38
2022-12-29T03:55:53.673Z,95238.19
2022-12-29T03:58:21.394Z,95234.59
2022-12-29T04:00:57.292Z,95233.63
2022-12-29T04:03:25.516Z,95230.69
2022-12-29T04:05:54.503Z,95227.09
2022-12-29T04:08:23.698Z,95224.97
2022-12-29T04:10:52.013Z,95227.59
2022-12-29T04:13:22.816Z,95223.97
2022-12-29T04:15:50.947Z,95226.13
2022-12-29T04:18:19.843Z,95232.31
2022-12-29T04:21:04.863Z,95230.69
2022-12-29T04:23:38.026Z,95244.25
2022-12-29T04:26:10.698Z,95233.47
2022-12-29T04:28:56.932Z,95233.66
2022-12-29T04:31:34.227Z,95234.63
2022-12-29T04:34:02.459Z,95234.78
2022-12-29T04:36:32.403Z,95241.16
2022-12-29T04:39:02.232Z,95238.47
2022-12-29T04:41:30.240Z,95229.50
2022-12-29T04:43:58.066Z,95239.66
2022-12-29T04:46:45.330Z,95237.53
2022-12-29T04:49:23.343Z,95240.78
2022-12-29T04:52:14.891Z,95241.44
2022-12-29T04:54:45.573Z,95243.72
2022-12-29T04:57:19.194Z,95228.34
2022-12-29T04:59:51.931Z,95226.72
2022-12-29T05:02:20.401Z,95229.06
2022-12-29T05:04:50.958Z,95236.72
2022-12-29T05:07:20.033Z,95225.38
2022-12-29T05:09:51.268Z,95231.72
2022-12-29T05:12:19.354Z,95232.81
2022-12-29T05:14:58.372Z,95232.66
2022-12-29T05:17:26.481Z,95232.66
2022-12-29T05:19:54.745Z,95230.94
2022-12-29T05:22:24.689Z,95234.44
2022-12-29T05:24:54.040Z,95227.34
2022-12-29T05:27:22.369Z,95228.41
2022-12-29T05:30:00.302Z,95224.41
2022-12-29T05:32:29.122Z,95225.81
2022-12-29T05:34:56.887Z,95224.50
2022-12-29T05:37:25.781Z,95226.84
2022-12-29T05:39:54.898Z,95223.91
2022-12-29T05:42:23.415Z,95222.91
2022-12-29T05:45:01.781Z,95216.59
2022-12-29T05:47:49.009Z,95223.75
2022-12-29T05:50:35.460Z,95221.50
2022-12-29T05:53:10.847Z,95224.44
2022-12-29T05:55:46.683Z,95220.25
2022-12-29T05:58:17.305Z,95217.03
2022-12-29T06:00:45.216Z,95219.88
2022-12-29T06:03:13.818Z,95211.19
2022-12-29T06:05:43.052Z,95231.91
2022-12-29T06:08:11.700Z,95215.31
2022-12-29T06:10:40.763Z,95236.13
2022-12-29T06:13:10.338Z,95216.41
2022-12-29T06:15:41.666Z,95218.84
2022-12-29T06:18:16.421Z,95206.00
2022-12-29T06:20:48.852Z,95218.16
2022-12-29T06:23:19.605Z,95223.25
2022-12-29T06:25:50.339Z,95207.69
2022-12-29T06:28:18.911Z,95219.13
2022-12-29T06:30:47.454Z,95224.75
2022-12-29T06:33:15.640Z,95210.75
2022-12-29T06:35:44.063Z,95217.50
2022-12-29T06:38:12.061Z,95227.03
2022-12-29T06:40:40.564Z,95231.59
2022-12-29T06:43:23.770Z,95234.78
2022-12-29T06:46:02.890Z,95239.69
2022-12-29T06:48:31.668Z,95242.19
2022-12-29T06:50:59.311Z,95243.03
2022-12-29T06:53:27.300Z,95239.38
2022-12-29T06:55:55.212Z,95245.06
2022-12-29T06:58:25.136Z,95243.13
2022-12-29T07:00:52.874Z,95248.06
2022-12-29T07:03:21.720Z,95228.34
2022-12-29T07:05:49.399Z,95242.84
2022-12-29T07:08:17.375Z,95246.31
2022-12-29T07:10:45.393Z,95242.94
2022-12-29T07:13:13.141Z,95244.06
2022-12-29T07:15:42.421Z,95251.94
2022-12-29T07:18:10.107Z,95249.19
2022-12-29T07:20:38.167Z,95261.75
2022-12-29T07:23:06.234Z,95250.66
2022-12-29T07:25:35.977Z,95258.09
2022-12-29T07:28:03.868Z,95249.06
2022-12-29T07:30:32.025Z,95244.06
2022-12-29T07:33:01.088Z,95247.56
2022-12-29T07:35:28.762Z,95244.28
2022-12-29T07:37:56.393Z,95250.06
2022-12-29T07:40:24.786Z,95255.59
2022-12-29T07:42:52.451Z,95247.16
2022-12-29T07:45:29.177Z,95239.00
2022-12-29T07:48:11.013Z,95249.75
2022-12-29T07:50:40.152Z,95246.53
2022-12-29T07:53:07.809Z,95246.53
2022-12-29T07:55:35.520Z,95242.41
2022-12-29T07:58:03.259Z,95245.72
2022-12-29T08:00:32.107Z,95251.97
2022-12-29T08:03:00.039Z,95250.41
2022-12-29T08:05:29.641Z,95232.56
2022-12-29T08:07:57.808Z,95250.25
2022-12-29T08:10:25.864Z,95256.38
2022-12-29T08:12:53.645Z,95260.53
2022-12-29T08:15:23.459Z,95257.66
2022-12-29T08:17:55.229Z,95260.97
2022-12-29T08:20:23.478Z,95258.78
2022-12-29T08:22:53.870Z,95280.16
2022-12-29T08:25:21.683Z,95262.69
2022-12-29T08:27:49.477Z,95272.22
2022-12-29T08:30:17.810Z,95273.78
2022-12-29T08:32:45.651Z,95270.94
2022-12-29T08:35:13.929Z,95277.63
2022-12-29T08:37:41.619Z,95277.03
2022-12-29T08:40:11.814Z,95273.44
2022-12-29T08:42:39.491Z,95277.56
2022-12-29T08:45:09.561Z,95269.16
2022-12-29T08:47:37.321Z,95273.94
2022-12-29T08:50:06.392Z,95278.34
2022-12-29T08:52:34.103Z,95273.78
2022-12-29T08:55:02.359Z,95276.81
2022-12-29T08:57:32.476Z,95268.63
2022-12-29T09:00:07.877Z,95261.13
2022-12-29T09:02:35.833Z,95262.28
2022-12-29T09:05:03.673Z,95277.47
2022-12-29T09:07:31.443Z,95274.63
2022-12-29T09:09:59.191Z,95280.13
2022-12-29T09:12:29.186Z,95294.03
2022-12-29T09:15:02.823Z,95291.16
2022-12-29T09:17:46.451Z,95310.09
2022-12-29T09:20:15.290Z,95311.28
2022-12-29T09:22:44.846Z,95309.00
2022-12-29T09:25:13.507Z,95306.00
2022-12-29T09:27:41.543Z,95314.19
2022-12-29T09:30:13.632Z,95311.31
2022-12-29T09:32:45.147Z,95308.88
2022-12-29T09:35:13.922Z,95315.78
2022-12-29T09:37:41.699Z,95313.81
2022-12-29T09:40:24.157Z,95305.25
2022-12-29T09:43:02.772Z,95311.22
2022-12-29T09:45:38.619Z,95308.63
2022-12-29T09:48:13.735Z,95297.63
2022-12-29T09:50:46.363Z,95291.94
2022-12-29T09:53:19.341Z,95296.72
2022-12-29T09:55:50.769Z,95293.56
2022-12-29T09:58:26.410Z,95285.44
2022-12-29T10:01:02.208Z,95284.56
2022-12-29T10:03:38.610Z,95285.19
2022-12-29T10:06:12.862Z,95285.09
2022-12-29T10:08:46.650Z,95295.59
2022-12-29T10:11:26.954Z,95281.25
2022-12-29T10:14:13.997Z,95293.53
2022-12-29T10:16:58.532Z,95280.81
2022-12-29T10:19:54.551Z,95281.22
2022-12-29T10:22:34.468Z,95276.59
2022-12-29T10:25:05.705Z,95270.09
2022-12-29T10:27:35.370Z,95265.31
2022-12-29T10:30:04.601Z,95269.84
2022-12-29T10:32:40.048Z,95262.34
2022-12-29T10:35:14.812Z,95269.41
2022-12-29T10:37:50.151Z,95268.28
2022-12-29T10:40:26.967Z,95265.38
2022-12-29T10:42:56.979Z,95256.84
2022-12-29T10:45:27.835Z,95265.63
2022-12-29T10:48:01.599Z,95255.75
2022-12-29T10:50:30.971Z,95251.56
2022-12-29T10:53:02.636Z,95240.44
2022-12-29T10:55:34.963Z,95241.66
2022-12-29T10:58:06.721Z,95246.38
2022-12-29T11:00:35.562Z,95228.63
2022-12-29T11:03:17.589Z,95242.56
2022-12-29T11:05:52.330Z,95226.84
2022-12-29T11:08:23.605Z,95231.91
2022-12-29T11:11:00.718Z,95219.50
2022-12-29T11:13:35.009Z,95215.91
2022-12-29T11:16:06.863Z,95221.31
2022-12-29T11:18:38.859Z,95213.81
2022-12-29T11:21:25.194Z,95211.31
2022-12-29T11:23:58.472Z,95202.22
2022-12-29T11:26:33.546Z,95198.28
2022-12-29T11:29:22.893Z,95201.84
2022-12-29T11:31:52.716Z,95187.88
2022-12-29T11:34:26.080Z,95196.56
2022-12-29T11:37:00.212Z,95203.63
2022-12-29T11:39:32.650Z,95200.97
2022-12-29T11:42:03.413Z,95190.75
2022-12-29T11:44:38.506Z,95179.06
2022-12-29T11:47:11.679Z,95187.91
2022-12-29T11:49:40.977Z,95192.41
2022-12-29T11:52:10.464Z,95187.38
2022-12-29T11:54:40.061Z,95193.94
2022-12-29T11:57:14.104Z,95207.09
2022-12-29T11:59:45.667Z,95197.53
2022-12-29T12:02:42.062Z,95201.31
2022-12-29T12:05:20.795Z,95207.06
2022-12-29T12:07:54.400Z,95212.59
2022-12-29T12:10:26.857Z,95206.97
2022-12-29T12:13:02.416Z,95211.84
2022-12-29T12:15:43.474Z,95198.91
2022-12-29T12:18:20.381Z,95196.66
2022-12-29T12:20:54.005Z,95205.47
2022-12-29T12:23:35.077Z,95190.06
2022-12-29T12:26:12.901Z,95200.53
2022-12-29T12:28:48.130Z,95202.84
2022-12-29T12:31:26.465Z,95195.19
2022-12-29T12:34:00.198Z,95205.19
2022-12-29T12:36:54.923Z,95191.84
2022-12-29T12:39:28.657Z,95185.75
2022-12-29T12:42:15.793Z,95186.72
2022-12-29T12:44:53.925Z,95204.66
2022-12-29T12:47:42.147Z,95204.69
2022-12-29T12:50:20.715Z,95191.63
2022-12-29T12:53:05.464Z,95195.84
2022-12-29T12:55:49.247Z,95197.22
2022-12-29T12:58:25.261Z,95182.66
2022-12-29T13:01:09.376Z,95188.06
2022-12-29T13:03:49.606Z,95189.09
2022-12-29T13:06:26.745Z,95196.69
2022-12-29T13:09:14.452Z,95192.81
2022-12-29T13:11:57.136Z,95182.84
2022-12-29T13:14:39.440Z,95179.94
2022-12-29T13:17:17.487Z,95178.22
2022-12-29T13:19:52.975Z,95177.34
2022-12-29T13:22:26.807Z,95173.69
2022-12-29T13:25:16.934Z,95170.44
2022-12-29T13:27:50.592Z,95163.13
2022-12-29T13:30:21.404Z,95168.50
2022-12-29T13:32:59.631Z,95172.75
2022-12-29T13:35:54.359Z,95167.00
2022-12-29T13:38:27.042Z,95168.25
2022-12-29T13:41:02.399Z,95166.72
2022-12-29T13:43:33.518Z,95177.38
2022-12-29T13:46:07.522Z,95176.91
2022-12-29T13:48:41.823Z,95181.16
2022-12-29T13:51:12.323Z,95186.19
2022-12-29T13:53:57.687Z,95184.91
2022-12-29T13:56:36.655Z,95170.38
2022-12-29T13:59:10.920Z,95165.47
2022-12-29T14:01:44.382Z,95177.34
2022-12-29T14:04:16.002Z,95179.34
2022-12-29T14:06:45.921Z,95186.72
2022-12-29T14:09:35.593Z,95185.88
2022-12-29T14:12:21.590Z,95187.00
2022-12-29T14:14:50.188Z,95183.56
2022-12-29T14:17:22.028Z,95188.47
2022-12-29T14:19:55.124Z,95190.16
2022-12-29T14:22:32.609Z,95192.53
2022-12-29T14:25:01.397Z,95189.69
2022-12-29T14:27:55.549Z,95196.22
2022-12-29T14:30:50.616Z,95199.88
2022-12-29T14:33:18.964Z,95210.09
2022-12-29T14:35:53.680Z,95194.63
2022-12-29T14:38:27.587Z,95204.44
2022-12-29T14:41:33.411Z,95212.19
2022-12-29T14:44:19.139Z,95200.19
2022-12-29T14:46:50.639Z,95198.72
2022-12-29T14:49:21.133Z,95210.53
2022-12-29T14:51:50.080Z,95204.41
2022-12-29T14:54:44.797Z,95196.50
2022-12-29T14:57:21.736Z,95196.28
2022-12-29T14:59:56.336Z,95195.88
2022-12-29T15:02:28.180Z,95201.59
2022-12-29T15:05:01.290Z,95197.09
2022-12-29T15:07:30.952Z,95193.69
2022-12-29T15:10:05.618Z,95195.09
2022-12-29T15:12:40.758Z,95193.69
2022-12-29T15:15:21.813Z,95207.69
2022-12-29T15:17:49.687Z,95203.84
2022-12-29T15:20:24.877Z,95210.97
2022-12-29T15:22:57.095Z,95212.78
2022-12-29T15:25:27.402Z,95212.59
2022-12-29T15:27:59.369Z,95208.53
2022-12-29T15:30:29.628Z,95212.38
2022-12-29T15:32:57.593Z,95204.44
2022-12-29T15:35:32.866Z,95205.47
2022-12-29T15:38:04.246Z,95210.97
2022-12-29T15:40:33.527Z,95216.19
2022-12-29T15:43:26.497Z,95214.63
2022-12-29T15:45:56.857Z,95215.84
2022-12-29T15:48:26.643Z,95207.44
2022-12-29T15:50:55.125Z,95201.97
2022-12-29T15:53:29.358Z,95203.16
2022-12-29T15:56:03.450Z,95192.00
2022-12-29T15:58:33.241Z,95199.91
2022-12-29T16:01:03.733Z,95209.69
2022-12-29T16:03:34.763Z,95213.75
2022-12-29T16:06:10.681Z,95212.94
2022-12-29T16:08:40.883Z,95213.31
2022-12-29T16:11:27.476Z,95212.47
2022-12-29T16:13:57.311Z,95214.97
2022-12-29T16:16:30.985Z,95214.16
2022-12-29T16:18:59.569Z,95215.13
2022-12-29T16:21:30.410Z,95221.84
2022-12-29T16:24:02.560Z,95215.34
2022-12-29T16:26:30.916Z,95214.94
2022-12-29T16:29:01.392Z,95214.97
2022-12-29T16:31:38.895Z,95212.94
2022-12-29T16:34:21.629Z,95216.25
2022-12-29T16:36:56.748Z,95217.47
2022-12-29T16:39:42.219Z,95217.06
2022-12-29T16:42:38.523Z,95222.34
2022-12-29T16:45:55.599Z,95215.38
2022-12-29T16:48:28.359Z,95219.47
2022-12-29T16:51:03.911Z,95214.97
2022-12-29T16:53:35.899Z,95224.53
2022-12-29T16:56:09.786Z,95215.75
2022-12-29T16:58:37.949Z,95226.34
2022-12-29T17:01:15.782Z,95219.03
2022-12-29T17:03:50.233Z,95225.31
2022-12-29T17:06:19.349Z,95231.81
2022-12-29T17:08:47.720Z,95230.75
2022-12-29T17:11:45.575Z,95231.19
2022-12-29T17:14:21.533Z,95230.78
2022-12-29T17:16:50.171Z,95233.59
2022-12-29T17:19:22.746Z,95231.19
2022-12-29T17:21:50.591Z,95223.91
2022-12-29T17:24:19.881Z,95224.72
2022-12-29T17:26:51.231Z,95239.78
2022-12-29T17:29:23.337Z,95237.16
2022-12-29T17:31:51.476Z,95236.53
2022-12-29T17:34:20.929Z,95237.53
2022-12-29T17:36:49.058Z,95244.22
2022-12-29T17:39:17.180Z,95249.50
2022-12-29T17:41:45.448Z,95254.81
2022-12-29T17:44:18.700Z,95245.00
2022-12-29T17:46:47.537Z,95239.69
2022-12-29T17:49:17.909Z,95254.72
2022-12-29T17:51:48.372Z,95254.72
2022-12-29T17:54:23.019Z,95250.22
2022-12-29T17:56:51.145Z,95248.66
2022-12-29T17:59:20.279Z,95253.91
2022-12-29T18:01:49.883Z,95251.47
2022-12-29T18:04:21.352Z,95247.88
2022-12-29T18:06:50.357Z,95247.84
2022-12-29T18:09:18.372Z,95247.22
2022-12-29T18:11:46.602Z,95256.78
2022-12-29T18:14:15.918Z,95261.63
2022-12-29T18:16:43.849Z,95247.75
2022-12-29T18:19:12.539Z,95255.50
2022-12-29T18:21:42.268Z,95248.75
2022-12-29T18:24:15.639Z,95243.31
2022-12-29T18:26:43.303Z,95240.13
2022-12-29T18:29:11.402Z,95241.72
2022-12-29T18:31:39.126Z,95247.41
2022-12-29T18:34:15.019Z,95245.78
2022-12-29T18:36:42.700Z,95245.97
2022-12-29T18:39:11.838Z,95244.16
2022-12-29T18:41:41.102Z,95253.31
2022-12-29T18:44:13.763Z,95256.16
2022-12-29T18:46:41.478Z,95257.97
2022-12-29T18:49:09.828Z,95250.31
2022-12-29T18:51:38.000Z,95262.09
2022-12-29T18:54:06.101Z,95262.47
2022-12-29T18:56:33.737Z,95257.63
2022-12-29T18:59:03.048Z,95258.00
2022-12-29T19:01:31.153Z,95260.63
2022-12-29T19:03:59.694Z,95256.50
2022-12-29T19:06:27.361Z,95259.88
2022-12-29T19:08:55.337Z,95265.28
2022-12-29T19:11:24.209Z,95259.56
2022-12-29T19:13:52.346Z,95259.94
2022-12-29T19:16:23.642Z,95266.00
2022-12-29T19:19:07.699Z,95264.56
2022-12-29T19:21:37.413Z,95273.53
2022-12-29T19:24:05.945Z,95267.19
2022-12-29T19:26:36.447Z,95273.78
2022-12-29T19:29:06.574Z,95281.38
2022-12-29T19:31:36.394Z,95278.81
2022-12-29T19:34:05.260Z,95282.53
2022-12-29T19:36:33.322Z,95277.25
2022-12-29T19:39:01.545Z,95274.06
2022-12-29T19:41:29.248Z,95268.56
2022-12-29T19:43:57.452Z,95264.63
2022-12-29T19:46:25.782Z,95255.41
2022-12-29T19:48:59.334Z,95254.16
2022-12-29T19:51:27.678Z,95248.06
2022-12-29T19:53:56.135Z,95251.41
2022-12-29T19:56:23.882Z,95245.94
2022-12-29T19:58:51.616Z,95250.41
2022-12-29T20:01:22.070Z,95254.06
2022-12-29T20:03:50.542Z,95244.31
2022-12-29T20:06:20.731Z,95241.56
2022-12-29T20:08:48.983Z,95242.97
2022-12-29T20:11:18.226Z,95229.28
2022-12-29T20:13:46.892Z,95227.81
2022-12-29T20:16:17.924Z,95241.81
2022-12-29T20:18:46.393Z,95227.53
2022-12-29T20:21:18.208Z,95228.06
2022-12-29T20:23:47.917Z,95218.38
2022-12-29T20:26:18.704Z,95209.28
2022-12-29T20:28:46.462Z,95201.13
2022-12-29T20:31:18.401Z,95208.38
2022-12-29T20:33:46.621Z,95195.44
2022-12-29T20:36:17.823Z,95185.19
2022-12-29T20:38:49.330Z,95215.88
2022-12-29T20:41:18.331Z,95218.22
2022-12-29T20:43:48.852Z,95203.13
2022-12-29T20:46:21.404Z,95236.53
2022-12-29T20:48:50.665Z,95219.09
2022-12-29T20:51:19.477Z,95213.44
2022-12-29T20:53:49.384Z,95221.97
2022-12-29T20:56:19.471Z,95226.13
2022-12-29T20:59:25.294Z,95234.03
2022-12-29T21:01:36.845Z,95227.91
2022-12-29T21:04:05.532Z,95228.88
2022-12-29T21:06:33.906Z,95226.03
2022-12-29T21:09:03.234Z,95238.88
2022-12-29T21:11:31.469Z,95235.28
2022-12-29T21:14:01.427Z,95233.66
2022-12-29T21:16:30.405Z,95224.13
2022-12-29T21:18:58.310Z,95226.88
2022-12-29T21:21:27.445Z,95216.19
2022-12-29T21:23:56.160Z,95238.34
2022-12-29T21:26:25.804Z,95241.78
2022-12-29T21:28:54.570Z,95246.69
2022-12-29T21:31:27.625Z,95245.53
2022-12-29T21:33:56.862Z,95259.34
2022-12-29T21:36:25.674Z,95262.63
2022-12-29T21:38:53.662Z,95270.53
2022-12-29T21:41:23.499Z,95269.38
2022-12-29T21:44:10.584Z,95279.53
2022-12-29T21:46:41.059Z,95266.25
2022-12-29T21:49:09.194Z,95263.09
2022-12-29T21:51:52.199Z,95269.88
2022-12-29T21:54:39.345Z,95285.22
2022-12-29T21:57:08.332Z,95266.41
2022-12-29T21:59:55.314Z,95274.75
2022-12-29T22:02:44.633Z,95281.84
2022-12-29T22:05:32.476Z,95290.00
2022-12-29T22:08:18.802Z,95291.06
2022-12-29T22:11:06.085Z,95297.34
2022-12-29T22:13:34.842Z,95306.56
2022-12-29T22:16:06.415Z,95311.22
2022-12-29T22:18:34.208Z,95322.75
2022-12-29T22:21:04.560Z,95318.69
2022-12-29T22:23:32.195Z,95326.75
2022-12-29T22:26:04.895Z,95326.41
2022-12-29T22:28:32.849Z,95323.50
2022-12-29T22:31:01.311Z,95336.78
2022-12-29T22:33:30.731Z,95338.53
2022-12-29T22:35:58.404Z,95334.78
2022-12-29T22:38:26.877Z,95339.44
2022-12-29T22:40:59.409Z,95346.09
2022-12-29T22:43:29.858Z,95349.03
2022-12-29T22:46:03.167Z,95361.59
2022-12-29T22:48:37.350Z,95360.72
2022-12-29T22:51:05.430Z,95362.03
2022-12-29T22:53:33.468Z,95359.78
2022-12-29T22:56:09.331Z,95359.97
2022-12-29T22:58:40.824Z,95358.91
2022-12-29T23:01:08.799Z,95365.28
2022-12-29T23:03:38.619Z,95369.44
2022-12-29T23:06:09.376Z,95365.78
2022-12-29T23:08:39.018Z,95370.44
2022-12-29T23:11:09.212Z,95382.22
2022-12-29T23:13:38.242Z,95390.00
2022-12-29T23:16:06.243Z,95374.19
2022-12-29T23:18:33.970Z,95378.63
2022-12-29T23:21:03.367Z,95381.03
2022-12-29T23:23:49.873Z,95395.75
2022-12-29T23:26:18.200Z,95388.75
2022-12-29T23:28:45.933Z,95395.41
2022-12-29T23:31:14.574Z,95398.75
2022-12-29T23:33:42.487Z,95405.44
2022-12-29T23:36:11.880Z,95399.59
2022-12-29T23:38:39.589Z,95413.59
2022-12-29T23:41:07.348Z,95414.41
2022-12-29T23:43:35.653Z,95410.81
2022-12-29T23:46:07.730Z,95416.59
2022-12-29T23:48:36.592Z,95417.72
2022-12-29T23:51:06.261Z,95432.75
2022-12-29T23:53:36.800Z,95437.56
2022-12-29T23:56:05.870Z,95433.84
2022-12-29T23:58:36.680Z,95456.78
